Gallatin Gateway, Montana
Current Conditions -  °F | °C
As of 1:56 PM on Thursday 23 Oct 2014 (Local Time) from KBZN Reporting Station
Clear Clear  
Wind Chill: 62°   Ceiling: Unl
Heat Index: 62°   Visibility: 10mi
Dew Point: 31°   Wind: 14mph
Humidity: 31%   Direction: 230°SW
Pressure: 29.95"   Gusts: 26mph
Location:  45.59°N, 111.2°W
Report Text: KBZN 231956Z 23012G23KT 10SM CLR 17/M01 A2995 RMK AO2 SLP134 T01671006
Loading
Personal Weather Stations






























Interactive Weather Map
Tropical Storm Tracking
New forecast layout! Learn more

10-Day Weather Forecast

Advertisements
Track Severe Weather on mobile